sensor_id;sensor_type;location;lat;lon;timestamp;P1;durP1;ratioP1;P2;durP2;ratioP2
54125;SDS011;40360;52.992;6.796;2024-03-02T00:01:58;5.30;;;3.70;;
54125;SDS011;40360;52.992;6.796;2024-03-02T00:04:30;5.40;;;3.33;;
54125;SDS011;40360;52.992;6.796;2024-03-02T00:06:58;4.47;;;3.45;;
54125;SDS011;40360;52.992;6.796;2024-03-02T00:10:08;6.50;;;3.53;;
54125;SDS011;40360;52.992;6.796;2024-03-02T00:13:10;5.07;;;3.55;;
54125;SDS011;40360;52.992;6.796;2024-03-02T00:15:55;4.78;;;3.50;;
54125;SDS011;40360;52.992;6.796;2024-03-02T00:27:20;7.22;;;3.90;;
54125;SDS011;40360;52.992;6.796;2024-03-02T00:29:51;8.65;;;3.63;;
54125;SDS011;40360;52.992;6.796;2024-03-02T00:32:17;7.05;;;3.75;;
54125;SDS011;40360;52.992;6.796;2024-03-02T00:34:43;4.25;;;3.58;;
54125;SDS011;40360;52.992;6.796;2024-03-02T00:37:09;5.00;;;4.07;;
54125;SDS011;40360;52.992;6.796;2024-03-02T00:39:36;6.40;;;4.35;;
54125;SDS011;40360;52.992;6.796;2024-03-02T00:42:02;5.82;;;4.00;;
54125;SDS011;40360;52.992;6.796;2024-03-02T00:47:07;6.10;;;4.45;;
54125;SDS011;40360;52.992;6.796;2024-03-02T00:49:41;4.95;;;3.97;;
54125;SDS011;40360;52.992;6.796;2024-03-02T00:52:11;6.78;;;4.03;;
54125;SDS011;40360;52.992;6.796;2024-03-02T00:54:52;6.38;;;4.25;;
54125;SDS011;40360;52.992;6.796;2024-03-02T00:57:22;5.60;;;4.00;;
54125;SDS011;40360;52.992;6.796;2024-03-02T01:00:06;5.35;;;3.80;;
54125;SDS011;40360;52.992;6.796;2024-03-02T01:02:35;6.20;;;4.50;;
54125;SDS011;40360;52.992;6.796;2024-03-02T01:05:06;5.10;;;3.75;;
54125;SDS011;40360;52.992;6.796;2024-03-02T01:07:50;6.15;;;4.30;;
54125;SDS011;40360;52.992;6.796;2024-03-02T01:13:01;6.97;;;4.50;;
54125;SDS011;40360;52.992;6.796;2024-03-02T01:15:38;5.57;;;3.90;;
54125;SDS011;40360;52.992;6.796;2024-03-02T01:18:09;5.82;;;4.03;;
54125;SDS011;40360;52.992;6.796;2024-03-02T01:23:40;5.70;;;4.15;;
54125;SDS011;40360;52.992;6.796;2024-03-02T01:26:09;7.10;;;4.25;;
54125;SDS011;40360;52.992;6.796;2024-03-02T01:28:35;8.65;;;4.95;;
54125;SDS011;40360;52.992;6.796;2024-03-02T01:31:00;5.20;;;4.00;;
54125;SDS011;40360;52.992;6.796;2024-03-02T01:33:30;7.82;;;4.70;;
54125;SDS011;40360;52.992;6.796;2024-03-02T01:36:00;5.68;;;4.53;;
54125;SDS011;40360;52.992;6.796;2024-03-02T01:38:26;7.45;;;4.43;;
54125;SDS011;40360;52.992;6.796;2024-03-02T01:40:56;6.00;;;4.55;;
54125;SDS011;40360;52.992;6.796;2024-03-02T01:43:49;5.35;;;3.92;;
54125;SDS011;40360;52.992;6.796;2024-03-02T01:46:24;6.43;;;4.00;;
54125;SDS011;40360;52.992;6.796;2024-03-02T01:48:55;6.03;;;4.22;;
54125;SDS011;40360;52.992;6.796;2024-03-02T01:51:41;5.18;;;4.13;;
54125;SDS011;40360;52.992;6.796;2024-03-02T01:54:07;6.43;;;4.22;;
54125;SDS011;40360;52.992;6.796;2024-03-02T01:56:36;6.75;;;4.13;;
54125;SDS011;40360;52.992;6.796;2024-03-02T01:59:02;6.35;;;3.80;;
54125;SDS011;40360;52.992;6.796;2024-03-02T02:01:32;5.97;;;4.43;;
54125;SDS011;40360;52.992;6.796;2024-03-02T02:03:58;5.43;;;4.38;;
54125;SDS011;40360;52.992;6.796;2024-03-02T02:12:24;6.97;;;4.88;;
54125;SDS011;40360;52.992;6.796;2024-03-02T02:14:51;4.60;;;3.60;;
54125;SDS011;40360;52.992;6.796;2024-03-02T02:20:17;4.85;;;3.58;;
54125;SDS011;40360;52.992;6.796;2024-03-02T02:25:22;5.80;;;3.58;;
54125;SDS011;40360;52.992;6.796;2024-03-02T02:27:49;5.88;;;4.03;;
54125;SDS011;40360;52.992;6.796;2024-03-02T02:30:19;4.68;;;3.40;;
54125;SDS011;40360;52.992;6.796;2024-03-02T02:32:46;5.63;;;3.10;;
54125;SDS011;40360;52.992;6.796;2024-03-02T02:35:11;5.05;;;3.53;;
54125;SDS011;40360;52.992;6.796;2024-03-02T02:37:38;7.47;;;3.38;;
54125;SDS011;40360;52.992;6.796;2024-03-02T02:40:14;4.78;;;3.22;;
54125;SDS011;40360;52.992;6.796;2024-03-02T02:43:00;4.93;;;2.92;;
54125;SDS011;40360;52.992;6.796;2024-03-02T02:45:32;4.10;;;2.72;;
54125;SDS011;40360;52.992;6.796;2024-03-02T02:47:58;3.85;;;2.90;;
54125;SDS011;40360;52.992;6.796;2024-03-02T02:50:26;3.33;;;2.67;;
54125;SDS011;40360;52.992;6.796;2024-03-02T02:52:51;3.85;;;2.47;;
54125;SDS011;40360;52.992;6.796;2024-03-02T02:55:17;4.05;;;3.35;;
54125;SDS011;40360;52.992;6.796;2024-03-02T02:57:43;3.90;;;2.80;;
54125;SDS011;40360;52.992;6.796;2024-03-02T03:00:10;4.03;;;2.80;;
54125;SDS011;40360;52.992;6.796;2024-03-02T03:02:45;3.83;;;2.65;;
54125;SDS011;40360;52.992;6.796;2024-03-02T03:05:16;4.18;;;2.88;;
54125;SDS011;40360;52.992;6.796;2024-03-02T03:08:16;4.90;;;2.47;;
54125;SDS011;40360;52.992;6.796;2024-03-02T03:10:42;6.72;;;3.42;;
54125;SDS011;40360;52.992;6.796;2024-03-02T03:13:08;3.10;;;2.58;;
54125;SDS011;40360;52.992;6.796;2024-03-02T03:15:37;4.30;;;2.78;;
54125;SDS011;40360;52.992;6.796;2024-03-02T03:18:03;5.13;;;2.30;;
54125;SDS011;40360;52.992;6.796;2024-03-02T03:20:29;4.55;;;2.20;;
54125;SDS011;40360;52.992;6.796;2024-03-02T03:22:56;3.67;;;2.47;;
54125;SDS011;40360;52.992;6.796;2024-03-02T03:25:23;5.13;;;2.30;;
54125;SDS011;40360;52.992;6.796;2024-03-02T03:28:06;4.85;;;2.17;;
54125;SDS011;40360;52.992;6.796;2024-03-02T03:30:53;5.22;;;2.38;;
54125;SDS011;40360;52.992;6.796;2024-03-02T03:33:41;5.35;;;2.30;;
54125;SDS011;40360;52.992;6.796;2024-03-02T03:36:07;4.15;;;2.17;;
54125;SDS011;40360;52.992;6.796;2024-03-02T03:38:32;3.55;;;2.60;;
54125;SDS011;40360;52.992;6.796;2024-03-02T03:40:58;3.47;;;2.20;;
54125;SDS011;40360;52.992;6.796;2024-03-02T03:43:24;5.13;;;2.35;;
54125;SDS011;40360;52.992;6.796;2024-03-02T03:45:50;3.92;;;2.00;;
54125;SDS011;40360;52.992;6.796;2024-03-02T03:48:16;5.32;;;2.40;;
54125;SDS011;40360;52.992;6.796;2024-03-02T03:53:25;5.18;;;2.33;;
54125;SDS011;40360;52.992;6.796;2024-03-02T03:55:51;4.28;;;2.38;;
54125;SDS011;40360;52.992;6.796;2024-03-02T03:58:34;3.35;;;2.13;;
54125;SDS011;40360;52.992;6.796;2024-03-02T04:00:59;2.90;;;2.30;;
54125;SDS011;40360;52.992;6.796;2024-03-02T04:03:25;5.85;;;2.47;;
54125;SDS011;40360;52.992;6.796;2024-03-02T04:05:51;3.83;;;2.45;;
54125;SDS011;40360;52.992;6.796;2024-03-02T04:08:17;4.13;;;3.13;;
54125;SDS011;40360;52.992;6.796;2024-03-02T04:10:44;4.03;;;2.67;;
54125;SDS011;40360;52.992;6.796;2024-03-02T04:13:10;5.25;;;2.47;;
54125;SDS011;40360;52.992;6.796;2024-03-02T04:19:01;4.55;;;2.45;;
54125;SDS011;40360;52.992;6.796;2024-03-02T04:22:03;3.85;;;2.42;;
54125;SDS011;40360;52.992;6.796;2024-03-02T04:24:32;2.90;;;2.10;;
54125;SDS011;40360;52.992;6.796;2024-03-02T04:26:58;4.70;;;2.58;;
54125;SDS011;40360;52.992;6.796;2024-03-02T04:29:46;4.63;;;2.63;;
54125;SDS011;40360;52.992;6.796;2024-03-02T04:32:23;7.07;;;3.78;;
54125;SDS011;40360;52.992;6.796;2024-03-02T04:38:03;4.18;;;2.72;;
54125;SDS011;40360;52.992;6.796;2024-03-02T04:40:29;3.67;;;2.75;;
54125;SDS011;40360;52.992;6.796;2024-03-02T04:43:17;5.40;;;2.67;;
54125;SDS011;40360;52.992;6.796;2024-03-02T04:45:56;4.50;;;2.65;;
54125;SDS011;40360;52.992;6.796;2024-03-02T04:48:50;7.40;;;2.78;;
54125;SDS011;40360;52.992;6.796;2024-03-02T04:51:32;3.35;;;2.65;;
54125;SDS011;40360;52.992;6.796;2024-03-02T04:54:09;4.68;;;3.33;;
54125;SDS011;40360;52.992;6.796;2024-03-02T04:56:57;3.92;;;2.40;;
54125;SDS011;40360;52.992;6.796;2024-03-02T04:59:23;4.50;;;3.17;;
54125;SDS011;40360;52.992;6.796;2024-03-02T05:01:49;4.65;;;3.28;;
54125;SDS011;40360;52.992;6.796;2024-03-02T05:04:14;4.93;;;2.88;;
54125;SDS011;40360;52.992;6.796;2024-03-02T05:10:11;5.28;;;2.92;;
54125;SDS011;40360;52.992;6.796;2024-03-02T05:12:38;4.78;;;3.92;;
54125;SDS011;40360;52.992;6.796;2024-03-02T05:15:10;7.57;;;3.33;;
54125;SDS011;40360;52.992;6.796;2024-03-02T05:17:37;4.82;;;3.08;;
54125;SDS011;40360;52.992;6.796;2024-03-02T05:20:03;5.60;;;3.33;;
54125;SDS011;40360;52.992;6.796;2024-03-02T05:22:30;4.88;;;3.00;;
54125;SDS011;40360;52.992;6.796;2024-03-02T05:24:56;5.68;;;3.40;;
54125;SDS011;40360;52.992;6.796;2024-03-02T05:27:22;3.97;;;3.00;;
54125;SDS011;40360;52.992;6.796;2024-03-02T05:29:47;5.28;;;3.00;;
54125;SDS011;40360;52.992;6.796;2024-03-02T05:32:13;4.35;;;3.20;;
54125;SDS011;40360;52.992;6.796;2024-03-02T05:34:39;4.03;;;2.95;;
54125;SDS011;40360;52.992;6.796;2024-03-02T05:37:04;5.07;;;3.45;;
54125;SDS011;40360;52.992;6.796;2024-03-02T05:39:30;4.45;;;3.08;;
54125;SDS011;40360;52.992;6.796;2024-03-02T05:41:56;4.55;;;3.25;;
54125;SDS011;40360;52.992;6.796;2024-03-02T05:44:21;7.15;;;3.25;;
54125;SDS011;40360;52.992;6.796;2024-03-02T05:46:47;3.90;;;2.67;;
54125;SDS011;40360;52.992;6.796;2024-03-02T05:52:44;5.28;;;2.58;;
54125;SDS011;40360;52.992;6.796;2024-03-02T05:55:10;3.90;;;2.47;;
54125;SDS011;40360;52.992;6.796;2024-03-02T05:57:36;5.35;;;2.88;;
54125;SDS011;40360;52.992;6.796;2024-03-02T06:00:10;3.78;;;3.03;;
54125;SDS011;40360;52.992;6.796;2024-03-02T06:02:39;4.20;;;3.20;;
54125;SDS011;40360;52.992;6.796;2024-03-02T06:05:11;4.07;;;2.92;;
54125;SDS011;40360;52.992;6.796;2024-03-02T06:07:37;5.72;;;3.20;;
54125;SDS011;40360;52.992;6.796;2024-03-02T06:10:03;5.72;;;3.65;;
54125;SDS011;40360;52.992;6.796;2024-03-02T06:12:30;5.28;;;2.75;;
54125;SDS011;40360;52.992;6.796;2024-03-02T06:14:57;3.65;;;3.05;;
54125;SDS011;40360;52.992;6.796;2024-03-02T06:17:23;4.63;;;2.88;;
54125;SDS011;40360;52.992;6.796;2024-03-02T06:19:49;5.63;;;2.72;;
54125;SDS011;40360;52.992;6.796;2024-03-02T06:22:14;4.22;;;3.00;;
54125;SDS011;40360;52.992;6.796;2024-03-02T06:24:40;4.72;;;2.88;;
54125;SDS011;40360;52.992;6.796;2024-03-02T06:27:06;4.30;;;3.10;;
54125;SDS011;40360;52.992;6.796;2024-03-02T06:29:34;5.25;;;3.25;;
54125;SDS011;40360;52.992;6.796;2024-03-02T06:32:00;6.47;;;3.08;;
54125;SDS011;40360;52.992;6.796;2024-03-02T06:34:26;4.75;;;2.85;;
54125;SDS011;40360;52.992;6.796;2024-03-02T06:36:52;3.97;;;2.83;;
54125;SDS011;40360;52.992;6.796;2024-03-02T06:39:17;4.22;;;2.80;;
54125;SDS011;40360;52.992;6.796;2024-03-02T06:41:43;6.97;;;3.40;;
54125;SDS011;40360;52.992;6.796;2024-03-02T06:44:09;5.05;;;2.63;;
54125;SDS011;40360;52.992;6.796;2024-03-02T06:46:34;3.63;;;2.50;;
54125;SDS011;40360;52.992;6.796;2024-03-02T06:49:00;4.05;;;2.70;;
54125;SDS011;40360;52.992;6.796;2024-03-02T06:51:27;3.15;;;2.60;;
54125;SDS011;40360;52.992;6.796;2024-03-02T06:53:53;3.50;;;2.53;;
54125;SDS011;40360;52.992;6.796;2024-03-02T06:56:19;4.97;;;2.92;;
54125;SDS011;40360;52.992;6.796;2024-03-02T06:58:44;5.35;;;3.03;;
54125;SDS011;40360;52.992;6.796;2024-03-02T07:01:10;5.60;;;2.85;;
54125;SDS011;40360;52.992;6.796;2024-03-02T07:03:36;5.10;;;2.80;;
54125;SDS011;40360;52.992;6.796;2024-03-02T07:06:02;4.93;;;2.88;;
54125;SDS011;40360;52.992;6.796;2024-03-02T07:08:28;5.72;;;3.30;;
54125;SDS011;40360;52.992;6.796;2024-03-02T07:10:53;4.93;;;2.92;;
54125;SDS011;40360;52.992;6.796;2024-03-02T07:13:19;3.83;;;2.63;;
54125;SDS011;40360;52.992;6.796;2024-03-02T07:15:45;4.90;;;2.85;;
54125;SDS011;40360;52.992;6.796;2024-03-02T07:18:30;4.60;;;2.65;;
54125;SDS011;40360;52.992;6.796;2024-03-02T07:20:56;4.63;;;3.13;;
54125;SDS011;40360;52.992;6.796;2024-03-02T07:23:28;11.68;;;4.20;;
54125;SDS011;40360;52.992;6.796;2024-03-02T07:25:55;5.30;;;3.10;;
54125;SDS011;40360;52.992;6.796;2024-03-02T07:28:24;4.45;;;3.13;;
54125;SDS011;40360;52.992;6.796;2024-03-02T07:30:58;6.03;;;2.75;;
54125;SDS011;40360;52.992;6.796;2024-03-02T07:33:27;5.15;;;3.08;;
54125;SDS011;40360;52.992;6.796;2024-03-02T07:35:56;4.25;;;2.70;;
54125;SDS011;40360;52.992;6.796;2024-03-02T07:38:24;4.68;;;3.22;;
54125;SDS011;40360;52.992;6.796;2024-03-02T07:40:50;4.50;;;3.13;;
54125;SDS011;40360;52.992;6.796;2024-03-02T07:43:17;4.88;;;3.13;;
54125;SDS011;40360;52.992;6.796;2024-03-02T07:45:43;5.43;;;3.03;;
54125;SDS011;40360;52.992;6.796;2024-03-02T07:48:08;3.70;;;3.00;;
54125;SDS011;40360;52.992;6.796;2024-03-02T07:50:34;4.75;;;2.40;;
54125;SDS011;40360;52.992;6.796;2024-03-02T07:53:00;4.78;;;2.47;;
54125;SDS011;40360;52.992;6.796;2024-03-02T07:55:26;4.15;;;2.65;;
54125;SDS011;40360;52.992;6.796;2024-03-02T07:57:52;4.35;;;2.30;;
54125;SDS011;40360;52.992;6.796;2024-03-02T08:00:18;3.95;;;3.15;;
54125;SDS011;40360;52.992;6.796;2024-03-02T08:02:44;6.38;;;2.92;;
54125;SDS011;40360;52.992;6.796;2024-03-02T08:05:10;4.28;;;2.65;;
54125;SDS011;40360;52.992;6.796;2024-03-02T08:07:35;4.00;;;2.88;;
54125;SDS011;40360;52.992;6.796;2024-03-02T08:10:01;3.97;;;2.50;;
54125;SDS011;40360;52.992;6.796;2024-03-02T08:12:27;3.92;;;2.85;;
54125;SDS011;40360;52.992;6.796;2024-03-02T08:14:53;7.82;;;3.25;;
54125;SDS011;40360;52.992;6.796;2024-03-02T08:17:19;3.72;;;2.83;;
54125;SDS011;40360;52.992;6.796;2024-03-02T08:19:44;4.88;;;2.95;;
54125;SDS011;40360;52.992;6.796;2024-03-02T08:22:10;4.05;;;3.15;;
54125;SDS011;40360;52.992;6.796;2024-03-02T08:24:37;8.23;;;3.42;;
54125;SDS011;40360;52.992;6.796;2024-03-02T08:27:02;5.88;;;3.75;;
54125;SDS011;40360;52.992;6.796;2024-03-02T08:29:28;5.13;;;3.47;;
54125;SDS011;40360;52.992;6.796;2024-03-02T08:31:54;5.78;;;3.50;;
54125;SDS011;40360;52.992;6.796;2024-03-02T08:34:20;4.75;;;3.38;;
54125;SDS011;40360;52.992;6.796;2024-03-02T08:36:46;4.57;;;2.53;;
54125;SDS011;40360;52.992;6.796;2024-03-02T08:39:12;3.78;;;2.03;;
54125;SDS011;40360;52.992;6.796;2024-03-02T08:41:44;4.18;;;2.35;;
54125;SDS011;40360;52.992;6.796;2024-03-02T08:44:10;4.35;;;2.08;;
54125;SDS011;40360;52.992;6.796;2024-03-02T09:02:56;2.58;;;1.20;;
54125;SDS011;40360;52.992;6.796;2024-03-02T09:05:22;3.03;;;1.30;;
54125;SDS011;40360;52.992;6.796;2024-03-02T09:07:48;1.92;;;1.17;;
54125;SDS011;40360;52.992;6.796;2024-03-02T09:10:13;2.22;;;1.20;;
54125;SDS011;40360;52.992;6.796;2024-03-02T09:12:39;2.28;;;1.20;;
54125;SDS011;40360;52.992;6.796;2024-03-02T09:15:05;2.38;;;1.23;;
54125;SDS011;40360;52.992;6.796;2024-03-02T09:17:31;2.05;;;1.10;;
54125;SDS011;40360;52.992;6.796;2024-03-02T09:19:57;3.22;;;1.40;;
54125;SDS011;40360;52.992;6.796;2024-03-02T09:22:22;4.03;;;0.98;;
54125;SDS011;40360;52.992;6.796;2024-03-02T09:24:48;1.83;;;1.10;;
54125;SDS011;40360;52.992;6.796;2024-03-02T09:27:14;1.35;;;0.80;;
54125;SDS011;40360;52.992;6.796;2024-03-02T09:29:39;1.30;;;0.80;;
54125;SDS011;40360;52.992;6.796;2024-03-02T09:32:05;2.53;;;0.90;;
54125;SDS011;40360;52.992;6.796;2024-03-02T09:34:32;2.05;;;1.17;;
54125;SDS011;40360;52.992;6.796;2024-03-02T09:36:57;2.88;;;1.27;;
54125;SDS011;40360;52.992;6.796;2024-03-02T09:39:24;2.25;;;1.50;;
54125;SDS011;40360;52.992;6.796;2024-03-02T09:41:51;2.03;;;1.58;;
54125;SDS011;40360;52.992;6.796;2024-03-02T09:44:18;4.93;;;2.33;;
54125;SDS011;40360;52.992;6.796;2024-03-02T09:46:48;3.45;;;1.40;;
54125;SDS011;40360;52.992;6.796;2024-03-02T09:49:14;3.47;;;1.48;;
54125;SDS011;40360;52.992;6.796;2024-03-02T09:51:40;1.67;;;0.93;;
54125;SDS011;40360;52.992;6.796;2024-03-02T09:54:12;2.53;;;1.00;;
54125;SDS011;40360;52.992;6.796;2024-03-02T09:56:38;2.63;;;1.17;;
54125;SDS011;40360;52.992;6.796;2024-03-02T09:59:04;2.10;;;1.10;;
54125;SDS011;40360;52.992;6.796;2024-03-02T10:01:30;2.15;;;0.90;;
54125;SDS011;40360;52.992;6.796;2024-03-02T10:03:58;2.13;;;0.98;;
54125;SDS011;40360;52.992;6.796;2024-03-02T10:06:25;1.90;;;1.00;;
54125;SDS011;40360;52.992;6.796;2024-03-02T10:08:52;1.67;;;1.00;;
54125;SDS011;40360;52.992;6.796;2024-03-02T10:11:33;3.88;;;1.58;;
54125;SDS011;40360;52.992;6.796;2024-03-02T10:16:38;1.35;;;0.95;;
54125;SDS011;40360;52.992;6.796;2024-03-02T10:19:18;5.50;;;1.15;;
54125;SDS011;40360;52.992;6.796;2024-03-02T10:21:54;2.55;;;1.05;;
54125;SDS011;40360;52.992;6.796;2024-03-02T10:24:21;2.25;;;1.25;;
54125;SDS011;40360;52.992;6.796;2024-03-02T10:26:48;4.32;;;1.20;;
54125;SDS011;40360;52.992;6.796;2024-03-02T10:29:14;1.77;;;1.08;;
54125;SDS011;40360;52.992;6.796;2024-03-02T10:31:41;2.78;;;1.67;;
54125;SDS011;40360;52.992;6.796;2024-03-02T10:34:09;3.15;;;1.13;;
54125;SDS011;40360;52.992;6.796;2024-03-02T10:36:35;2.85;;;1.20;;
54125;SDS011;40360;52.992;6.796;2024-03-02T10:39:05;2.65;;;1.60;;
54125;SDS011;40360;52.992;6.796;2024-03-02T10:41:33;2.75;;;1.65;;
54125;SDS011;40360;52.992;6.796;2024-03-02T10:44:00;5.18;;;1.30;;
54125;SDS011;40360;52.992;6.796;2024-03-02T10:46:31;3.35;;;1.52;;
54125;SDS011;40360;52.992;6.796;2024-03-02T10:49:02;2.80;;;1.45;;
54125;SDS011;40360;52.992;6.796;2024-03-02T10:51:30;6.88;;;2.42;;
54125;SDS011;40360;52.992;6.796;2024-03-02T10:53:58;2.30;;;1.40;;
54125;SDS011;40360;52.992;6.796;2024-03-02T10:56:44;4.13;;;2.22;;
54125;SDS011;40360;52.992;6.796;2024-03-02T11:01:56;3.80;;;2.55;;
54125;SDS011;40360;52.992;6.796;2024-03-02T11:04:24;3.50;;;1.80;;
54125;SDS011;40360;52.992;6.796;2024-03-02T11:06:52;4.82;;;2.30;;
54125;SDS011;40360;52.992;6.796;2024-03-02T11:09:22;4.93;;;2.30;;
54125;SDS011;40360;52.992;6.796;2024-03-02T11:12:02;3.50;;;2.17;;
54125;SDS011;40360;52.992;6.796;2024-03-02T11:14:36;2.45;;;1.95;;
54125;SDS011;40360;52.992;6.796;2024-03-02T11:17:05;3.97;;;2.33;;
54125;SDS011;40360;52.992;6.796;2024-03-02T11:19:32;4.20;;;2.50;;
54125;SDS011;40360;52.992;6.796;2024-03-02T11:21:59;3.85;;;2.47;;
54125;SDS011;40360;52.992;6.796;2024-03-02T11:26:57;6.78;;;3.00;;
54125;SDS011;40360;52.992;6.796;2024-03-02T11:32:05;3.80;;;2.20;;
54125;SDS011;40360;52.992;6.796;2024-03-02T11:34:35;3.33;;;1.98;;
54125;SDS011;40360;52.992;6.796;2024-03-02T11:37:04;3.85;;;2.42;;
54125;SDS011;40360;52.992;6.796;2024-03-02T11:39:30;2.75;;;1.92;;
54125;SDS011;40360;52.992;6.796;2024-03-02T11:41:57;3.75;;;2.10;;
54125;SDS011;40360;52.992;6.796;2024-03-02T11:44:26;5.20;;;2.55;;
54125;SDS011;40360;52.992;6.796;2024-03-02T11:46:59;3.03;;;1.85;;
54125;SDS011;40360;52.992;6.796;2024-03-02T11:52:07;3.60;;;1.95;;
54125;SDS011;40360;52.992;6.796;2024-03-02T11:54:34;3.90;;;2.05;;
54125;SDS011;40360;52.992;6.796;2024-03-02T11:57:04;3.67;;;2.45;;
54125;SDS011;40360;52.992;6.796;2024-03-02T11:59:31;7.90;;;3.00;;
54125;SDS011;40360;52.992;6.796;2024-03-02T12:01:58;5.05;;;2.42;;
54125;SDS011;40360;52.992;6.796;2024-03-02T12:04:24;2.72;;;2.13;;
54125;SDS011;40360;52.992;6.796;2024-03-02T12:06:58;5.90;;;2.47;;
54125;SDS011;40360;52.992;6.796;2024-03-02T12:09:25;2.83;;;2.20;;
54125;SDS011;40360;52.992;6.796;2024-03-02T12:12:01;5.50;;;2.42;;
54125;SDS011;40360;52.992;6.796;2024-03-02T12:14:31;3.42;;;2.10;;
54125;SDS011;40360;52.992;6.796;2024-03-02T12:16:58;3.03;;;2.70;;
54125;SDS011;40360;52.992;6.796;2024-03-02T12:19:27;3.65;;;3.10;;
54125;SDS011;40360;52.992;6.796;2024-03-02T12:21:55;5.43;;;3.15;;
54125;SDS011;40360;52.992;6.796;2024-03-02T12:24:21;5.70;;;3.00;;
54125;SDS011;40360;52.992;6.796;2024-03-02T12:26:48;4.95;;;3.65;;
54125;SDS011;40360;52.992;6.796;2024-03-02T12:29:15;4.50;;;3.47;;
54125;SDS011;40360;52.992;6.796;2024-03-02T12:31:44;6.25;;;3.35;;
54125;SDS011;40360;52.992;6.796;2024-03-02T12:34:13;4.05;;;2.97;;
54125;SDS011;40360;52.992;6.796;2024-03-02T12:36:41;7.15;;;3.25;;
54125;SDS011;40360;52.992;6.796;2024-03-02T12:39:07;7.68;;;3.40;;
54125;SDS011;40360;52.992;6.796;2024-03-02T12:41:36;6.22;;;4.00;;
54125;SDS011;40360;52.992;6.796;2024-03-02T12:44:05;6.63;;;3.33;;
54125;SDS011;40360;52.992;6.796;2024-03-02T12:46:31;6.97;;;3.00;;
54125;SDS011;40360;52.992;6.796;2024-03-02T12:48:58;6.65;;;3.50;;
54125;SDS011;40360;52.992;6.796;2024-03-02T12:51:24;4.95;;;3.50;;
54125;SDS011;40360;52.992;6.796;2024-03-02T12:53:56;4.38;;;3.00;;
54125;SDS011;40360;52.992;6.796;2024-03-02T12:56:23;4.03;;;2.90;;
54125;SDS011;40360;52.992;6.796;2024-03-02T12:58:53;4.95;;;3.05;;
54125;SDS011;40360;52.992;6.796;2024-03-02T13:01:19;5.20;;;3.20;;
54125;SDS011;40360;52.992;6.796;2024-03-02T13:03:47;4.13;;;2.70;;
54125;SDS011;40360;52.992;6.796;2024-03-02T13:06:16;5.18;;;3.08;;
54125;SDS011;40360;52.992;6.796;2024-03-02T13:08:42;3.13;;;2.83;;
54125;SDS011;40360;52.992;6.796;2024-03-02T13:11:08;4.13;;;2.50;;
54125;SDS011;40360;52.992;6.796;2024-03-02T13:13:34;14.02;;;3.50;;
54125;SDS011;40360;52.992;6.796;2024-03-02T13:16:00;5.97;;;2.83;;
54125;SDS011;40360;52.992;6.796;2024-03-02T13:18:27;5.22;;;3.28;;
54125;SDS011;40360;52.992;6.796;2024-03-02T13:20:54;4.35;;;2.50;;
54125;SDS011;40360;52.992;6.796;2024-03-02T13:23:21;5.63;;;3.10;;
54125;SDS011;40360;52.992;6.796;2024-03-02T13:25:47;3.45;;;2.42;;
54125;SDS011;40360;52.992;6.796;2024-03-02T13:28:12;3.83;;;2.15;;
54125;SDS011;40360;52.992;6.796;2024-03-02T13:30:38;3.75;;;2.35;;
54125;SDS011;40360;52.992;6.796;2024-03-02T13:33:04;4.05;;;2.15;;
54125;SDS011;40360;52.992;6.796;2024-03-02T13:35:30;2.85;;;2.28;;
54125;SDS011;40360;52.992;6.796;2024-03-02T13:37:55;3.22;;;1.90;;
54125;SDS011;40360;52.992;6.796;2024-03-02T13:40:21;2.90;;;1.42;;
54125;SDS011;40360;52.992;6.796;2024-03-02T13:42:48;4.22;;;1.90;;
54125;SDS011;40360;52.992;6.796;2024-03-02T13:45:16;2.90;;;1.27;;
54125;SDS011;40360;52.992;6.796;2024-03-02T13:47:43;2.67;;;1.20;;
54125;SDS011;40360;52.992;6.796;2024-03-02T13:50:09;3.72;;;1.30;;
54125;SDS011;40360;52.992;6.796;2024-03-02T13:52:35;2.90;;;1.20;;
54125;SDS011;40360;52.992;6.796;2024-03-02T13:55:01;3.25;;;1.45;;
54125;SDS011;40360;52.992;6.796;2024-03-02T13:57:27;33.25;;;4.13;;
54125;SDS011;40360;52.992;6.796;2024-03-02T13:59:53;5.03;;;1.70;;
54125;SDS011;40360;52.992;6.796;2024-03-02T14:02:19;3.40;;;1.10;;
54125;SDS011;40360;52.992;6.796;2024-03-02T14:04:45;2.50;;;1.35;;
54125;SDS011;40360;52.992;6.796;2024-03-02T14:07:13;1.42;;;0.98;;
54125;SDS011;40360;52.992;6.796;2024-03-02T14:09:40;5.10;;;1.23;;
54125;SDS011;40360;52.992;6.796;2024-03-02T14:12:21;2.83;;;0.90;;
54125;SDS011;40360;52.992;6.796;2024-03-02T14:14:47;4.55;;;1.50;;
54125;SDS011;40360;52.992;6.796;2024-03-02T14:17:16;5.53;;;3.42;;
54125;SDS011;40360;52.992;6.796;2024-03-02T14:19:41;1.80;;;1.00;;
54125;SDS011;40360;52.992;6.796;2024-03-02T14:22:07;2.05;;;1.27;;
54125;SDS011;40360;52.992;6.796;2024-03-02T14:24:33;31.25;;;2.83;;
54125;SDS011;40360;52.992;6.796;2024-03-02T14:26:58;2.65;;;1.48;;
54125;SDS011;40360;52.992;6.796;2024-03-02T14:29:27;3.33;;;1.90;;
54125;SDS011;40360;52.992;6.796;2024-03-02T14:31:52;2.30;;;1.65;;
54125;SDS011;40360;52.992;6.796;2024-03-02T14:34:18;2.30;;;1.70;;
54125;SDS011;40360;52.992;6.796;2024-03-02T14:36:44;5.97;;;2.58;;
54125;SDS011;40360;52.992;6.796;2024-03-02T14:39:10;5.88;;;2.47;;
54125;SDS011;40360;52.992;6.796;2024-03-02T14:41:36;3.38;;;2.47;;
54125;SDS011;40360;52.992;6.796;2024-03-02T14:44:02;3.70;;;2.60;;
54125;SDS011;40360;52.992;6.796;2024-03-02T14:46:28;5.07;;;2.63;;
54125;SDS011;40360;52.992;6.796;2024-03-02T14:48:54;4.00;;;2.40;;
54125;SDS011;40360;52.992;6.796;2024-03-02T14:51:20;4.57;;;2.80;;
54125;SDS011;40360;52.992;6.796;2024-03-02T14:53:46;3.83;;;2.42;;
54125;SDS011;40360;52.992;6.796;2024-03-02T14:56:11;5.72;;;2.55;;
54125;SDS011;40360;52.992;6.796;2024-03-02T14:58:40;3.35;;;2.28;;
54125;SDS011;40360;52.992;6.796;2024-03-02T15:01:06;6.28;;;2.60;;
54125;SDS011;40360;52.992;6.796;2024-03-02T15:03:32;3.85;;;2.60;;
54125;SDS011;40360;52.992;6.796;2024-03-02T15:05:58;3.20;;;2.30;;
54125;SDS011;40360;52.992;6.796;2024-03-02T15:08:24;3.65;;;2.10;;
54125;SDS011;40360;52.992;6.796;2024-03-02T15:10:51;4.10;;;2.58;;
54125;SDS011;40360;52.992;6.796;2024-03-02T15:13:20;9.38;;;2.92;;
54125;SDS011;40360;52.992;6.796;2024-03-02T15:15:46;2.63;;;2.30;;
54125;SDS011;40360;52.992;6.796;2024-03-02T15:18:12;4.50;;;2.75;;
54125;SDS011;40360;52.992;6.796;2024-03-02T15:20:38;4.70;;;2.83;;
54125;SDS011;40360;52.992;6.796;2024-03-02T15:23:03;3.85;;;2.90;;
54125;SDS011;40360;52.992;6.796;2024-03-02T15:25:29;6.75;;;3.08;;
54125;SDS011;40360;52.992;6.796;2024-03-02T15:27:55;3.80;;;2.45;;
54125;SDS011;40360;52.992;6.796;2024-03-02T15:30:21;3.42;;;2.58;;
54125;SDS011;40360;52.992;6.796;2024-03-02T15:32:47;6.45;;;3.35;;
54125;SDS011;40360;52.992;6.796;2024-03-02T15:35:13;3.97;;;3.05;;
54125;SDS011;40360;52.992;6.796;2024-03-02T15:37:39;7.90;;;3.00;;
54125;SDS011;40360;52.992;6.796;2024-03-02T15:40:04;4.43;;;2.42;;
54125;SDS011;40360;52.992;6.796;2024-03-02T15:42:32;4.43;;;2.53;;
54125;SDS011;40360;52.992;6.796;2024-03-02T15:44:58;3.63;;;3.08;;
54125;SDS011;40360;52.992;6.796;2024-03-02T15:47:24;4.30;;;2.85;;
54125;SDS011;40360;52.992;6.796;2024-03-02T15:49:50;4.75;;;3.00;;
54125;SDS011;40360;52.992;6.796;2024-03-02T15:52:15;3.42;;;2.45;;
54125;SDS011;40360;52.992;6.796;2024-03-02T15:54:44;5.35;;;3.00;;
54125;SDS011;40360;52.992;6.796;2024-03-02T15:57:10;3.88;;;3.17;;
54125;SDS011;40360;52.992;6.796;2024-03-02T15:59:36;3.42;;;2.63;;
54125;SDS011;40360;52.992;6.796;2024-03-02T16:02:02;7.45;;;3.17;;
54125;SDS011;40360;52.992;6.796;2024-03-02T16:04:29;3.30;;;2.65;;
54125;SDS011;40360;52.992;6.796;2024-03-02T16:06:55;6.45;;;3.00;;
54125;SDS011;40360;52.992;6.796;2024-03-02T16:09:21;4.25;;;3.15;;
54125;SDS011;40360;52.992;6.796;2024-03-02T16:11:46;5.88;;;3.40;;